This is the latest recevied weather packets stored in our database for station/object DO1BDB-12. If no packets are shown the sender has not sent any weather packets the latest 10 day(s).
| Time | Temp. | Humidity | Pressure | Rain* | Wind** | Luminosity | Snow |
|---|---|---|---|---|---|---|---|
| 1778242385 | 17.78° C | 37% | 102.2 hPa | - | - | - | - |
| 1778242319 | 16.67° C | 37% | 102.2 hPa | - | - | - | - |
| 1778242253 | 15.56° C | 38% | 102.2 hPa | - | - | - | - |
| 1778242187 | 15.56° C | 39% | 102.2 hPa | - | - | - | - |
| 1778242121 | 16.67° C | 37% | 102.2 hPa | - | - | - | - |
| 1778242055 | 17.78° C | 38% | 102.1 hPa | - | - | - | - |
| 1778241990 | 18.33° C | 36% | 102.2 hPa | - | - | - | - |
| 1778241924 | 17.22° C | 36% | 102.2 hPa | - | - | - | - |
| 1778241858 | 17.22° C | 36% | 102.2 hPa | - | - | - | - |
| 1778241792 | 16.11° C | 38% | 102.2 hPa | - | - | - | - |
| 1778241726 | 17.78° C | 35% | 102.2 hPa | - | - | - | - |
| 1778241660 | 18.33° C | 35% | 102.1 hPa | - | - | - | - |
| 1778241594 | 17.78° C | 35% | 102.2 hPa | - | - | - | - |
| 1778241529 | 18.33° C | 35% | 102.1 hPa | - | - | - | - |
| 1778241463 | 18.89° C | 33% | 102.2 hPa | - | - | - | - |
| 1778241397 | 18.33° C | 34% | 102.2 hPa | - | - | - | - |
| 1778241331 | 17.22° C | 35% | 102.2 hPa | - | - | - | - |
| 1778241265 | 17.22° C | 35% | 102.2 hPa | - | - | - | - |
| 1778241199 | 16.67° C | 35% | 102.2 hPa | - | - | - | - |
| 1778241133 | 17.22° C | 36% | 102.2 hPa | - | - | - | - |
| 1778241068 | 16.67° C | 34% | 102.2 hPa | - | - | - | - |
| 1778241002 | 18.33° C | 33% | 102.2 hPa | - | - | - | - |
| 1778240936 | 18.89° C | 34% | 102.2 hPa | - | - | - | - |
| 1778240870 | 18.33° C | 35% | 102.2 hPa | - | - | - | - |
| 1778240804 | 17.78° C | 35% | 102.2 hPa | - | - | - | - |
* Rain since midnight (hover to see other rain measurements)
** Current wind speed in m/s (hover to see current wind gust speed)